createdAt,value
2023-02-15T00:01:10.483Z,16.83
2023-02-15T00:03:37.620Z,18.27
2023-02-15T00:06:06.049Z,16.17
2023-02-15T00:08:32.966Z,17.67
2023-02-15T00:11:11.713Z,17.25
2023-02-15T00:13:42.085Z,18.48
2023-02-15T00:16:13.863Z,17.95
2023-02-15T00:18:40.936Z,17.33
2023-02-15T00:21:10.404Z,19.27
2023-02-15T00:23:37.686Z,18.42
2023-02-15T00:26:06.767Z,17.33
2023-02-15T00:28:33.862Z,17.67
2023-02-15T00:31:04.996Z,17.30
2023-02-15T00:33:31.902Z,17.13
2023-02-15T00:36:00.239Z,16.20
2023-02-15T00:38:29.013Z,19.58
2023-02-15T00:40:57.657Z,18.80
2023-02-15T00:43:24.740Z,17.75
2023-02-15T00:45:51.885Z,17.98
2023-02-15T00:48:19.556Z,18.55
2023-02-15T00:50:48.052Z,16.88
2023-02-15T00:53:14.939Z,18.25
2023-02-15T00:55:44.602Z,17.95
2023-02-15T00:58:12.653Z,18.83
2023-02-15T01:00:41.037Z,19.33
2023-02-15T01:03:08.021Z,17.20
2023-02-15T01:05:35.213Z,19.35
2023-02-15T01:08:02.321Z,18.38
2023-02-15T01:10:29.860Z,16.95
2023-02-15T01:12:57.702Z,20.23
2023-02-15T01:15:25.188Z,19.05
2023-02-15T01:17:53.780Z,17.85
2023-02-15T01:20:26.523Z,18.48
2023-02-15T01:22:54.391Z,18.55
2023-02-15T01:25:23.909Z,17.88
2023-02-15T01:27:50.667Z,20.17
2023-02-15T01:30:18.224Z,18.75
2023-02-15T01:32:45.030Z,18.65
2023-02-15T01:35:12.514Z,17.42
2023-02-15T01:37:39.332Z,20.50
2023-02-15T01:40:09.828Z,18.80
2023-02-15T01:42:36.611Z,18.58
2023-02-15T01:45:19.087Z,20.55
2023-02-15T01:47:50.851Z,20.05
2023-02-15T01:50:22.505Z,20.50
2023-02-15T01:53:22.783Z,25.98
2023-02-15T01:56:02.993Z,31.17
2023-02-15T01:58:30.670Z,28.27
2023-02-15T02:01:01.275Z,26.88
2023-02-15T02:03:50.237Z,29.92
2023-02-15T02:06:18.393Z,28.90
2023-02-15T02:08:45.689Z,29.63
2023-02-15T02:11:14.118Z,30.85
2023-02-15T02:13:42.994Z,30.77
2023-02-15T02:16:46.069Z,29.17
2023-02-15T02:19:24.612Z,29.20
2023-02-15T02:22:29.172Z,27.73
2023-02-15T02:25:36.106Z,27.48
2023-02-15T02:28:20.967Z,27.73
2023-02-15T02:30:56.788Z,26.50
2023-02-15T02:34:09.814Z,25.15
2023-02-15T02:36:56.979Z,25.17
2023-02-15T02:39:43.610Z,25.35
2023-02-15T02:42:10.352Z,25.33
2023-02-15T02:44:47.994Z,27.38
2023-02-15T02:47:31.809Z,23.80
2023-02-15T02:52:48.694Z,21.75
2023-02-15T02:55:35.473Z,21.13
2023-02-15T02:58:06.092Z,20.75
2023-02-15T03:00:39.419Z,21.58
2023-02-15T03:03:34.749Z,23.30
2023-02-15T03:06:06.441Z,22.23
2023-02-15T03:08:39.151Z,23.80
2023-02-15T03:11:06.877Z,21.55
2023-02-15T03:13:35.226Z,21.55
2023-02-15T03:16:24.575Z,21.98
2023-02-15T03:18:58.114Z,18.98
2023-02-15T03:24:03.563Z,19.13
2023-02-15T03:26:31.557Z,18.63
2023-02-15T03:29:01.373Z,22.48
2023-02-15T03:31:33.421Z,20.88
2023-02-15T03:34:04.769Z,22.02
2023-02-15T03:36:39.868Z,23.83
2023-02-15T03:39:18.851Z,21.75
2023-02-15T03:41:57.784Z,22.35
2023-02-15T03:44:32.968Z,22.50
2023-02-15T03:47:06.984Z,24.65
2023-02-15T03:52:14.043Z,20.88
2023-02-15T03:54:45.853Z,21.10
2023-02-15T03:57:37.579Z,21.02
2023-02-15T04:00:31.027Z,22.60
2023-02-15T04:03:11.429Z,21.02
2023-02-15T04:05:38.934Z,22.80
2023-02-15T04:08:06.273Z,23.85
2023-02-15T04:10:51.512Z,24.52
2023-02-15T04:13:22.474Z,24.15
2023-02-15T04:16:05.368Z,24.08
2023-02-15T04:19:00.678Z,23.55
2023-02-15T04:21:48.336Z,23.48
2023-02-15T04:24:34.183Z,23.55
2023-02-15T04:27:02.112Z,23.58
2023-02-15T04:29:32.978Z,23.00
2023-02-15T04:32:02.718Z,23.40
2023-02-15T04:34:29.814Z,22.80
2023-02-15T04:36:56.709Z,22.50
2023-02-15T04:39:23.770Z,24.17
2023-02-15T04:41:50.590Z,22.25
2023-02-15T04:44:17.663Z,23.15
2023-02-15T04:46:44.481Z,25.27
2023-02-15T04:49:11.595Z,22.70
2023-02-15T04:51:41.946Z,22.20
2023-02-15T04:54:09.004Z,21.48
2023-02-15T04:56:38.688Z,22.40
2023-02-15T04:59:06.063Z,23.08
2023-02-15T05:01:35.856Z,22.83
2023-02-15T05:04:03.723Z,21.75
2023-02-15T05:06:30.773Z,21.40
2023-02-15T05:09:00.180Z,22.88
2023-02-15T05:11:27.937Z,21.73
2023-02-15T05:13:55.087Z,22.27
2023-02-15T05:16:29.404Z,23.05
2023-02-15T05:18:56.691Z,23.48
2023-02-15T05:21:26.677Z,23.85
2023-02-15T05:23:53.866Z,22.67
2023-02-15T05:26:42.714Z,21.90
2023-02-15T05:29:10.013Z,19.60
2023-02-15T05:31:37.565Z,20.88
2023-02-15T05:34:04.801Z,20.48
2023-02-15T05:36:31.609Z,21.10
2023-02-15T05:38:58.764Z,22.00
2023-02-15T05:41:26.575Z,21.23
2023-02-15T05:43:56.407Z,23.00
2023-02-15T05:46:23.232Z,24.17
2023-02-15T05:48:50.344Z,22.85
2023-02-15T05:51:17.940Z,24.10
2023-02-15T05:53:45.060Z,24.83
2023-02-15T05:56:13.030Z,23.48
2023-02-15T05:58:42.341Z,19.80
2023-02-15T06:01:13.152Z,20.67
2023-02-15T06:03:41.261Z,22.83
2023-02-15T06:06:08.518Z,21.85
2023-02-15T06:08:37.008Z,21.15
2023-02-15T06:11:07.426Z,21.33
2023-02-15T06:13:37.985Z,20.02
2023-02-15T06:16:06.165Z,20.17
2023-02-15T06:18:33.423Z,19.52
2023-02-15T06:21:00.191Z,22.15
2023-02-15T06:23:27.309Z,21.85
2023-02-15T06:25:54.478Z,20.10
2023-02-15T06:28:21.597Z,21.45
2023-02-15T06:30:48.456Z,20.70
2023-02-15T06:33:15.608Z,19.35
2023-02-15T06:35:42.397Z,20.27
2023-02-15T06:38:09.568Z,21.17
2023-02-15T06:40:36.349Z,21.15
2023-02-15T06:43:03.458Z,22.05
2023-02-15T06:45:30.290Z,22.95
2023-02-15T06:47:57.369Z,24.85
2023-02-15T06:50:24.244Z,25.75
2023-02-15T06:52:56.909Z,28.40
2023-02-15T06:55:23.708Z,23.77
2023-02-15T06:57:51.185Z,24.05
2023-02-15T07:00:18.775Z,24.05
2023-02-15T07:02:46.006Z,21.38
2023-02-15T07:05:13.241Z,19.27
2023-02-15T07:07:40.371Z,20.90
2023-02-15T07:10:07.645Z,21.90
2023-02-15T07:12:43.757Z,20.05
2023-02-15T07:15:13.526Z,19.80
2023-02-15T07:17:40.987Z,20.55
2023-02-15T07:20:37.570Z,17.10
2023-02-15T07:23:05.898Z,17.52
2023-02-15T07:25:32.732Z,18.27
2023-02-15T07:28:01.716Z,20.58
2023-02-15T07:30:29.254Z,17.75
2023-02-15T07:33:18.311Z,16.17
2023-02-15T07:35:56.708Z,15.35
2023-02-15T07:38:24.569Z,15.48
2023-02-15T07:40:51.568Z,14.43
2023-02-15T07:43:18.676Z,14.23
2023-02-15T07:45:45.565Z,14.98
2023-02-15T07:48:12.683Z,13.48
2023-02-15T07:50:39.724Z,14.02
2023-02-15T07:53:06.785Z,15.38
2023-02-15T07:55:33.626Z,13.40
2023-02-15T07:58:00.722Z,12.48
2023-02-15T08:00:27.582Z,14.75
2023-02-15T08:03:14.564Z,13.82
2023-02-15T08:05:43.620Z,14.60
2023-02-15T08:08:30.680Z,15.88
2023-02-15T08:11:31.693Z,16.77
2023-02-15T08:14:05.629Z,15.82
2023-02-15T08:19:21.291Z,15.35
2023-02-15T08:21:58.059Z,14.38
2023-02-15T08:24:30.766Z,13.90
2023-02-15T08:27:05.760Z,15.95
2023-02-15T08:29:38.477Z,14.73
2023-02-15T08:32:11.102Z,17.15
2023-02-15T08:34:42.217Z,17.93
2023-02-15T08:37:11.870Z,17.98
2023-02-15T08:39:38.994Z,16.27
2023-02-15T08:42:05.846Z,17.40
2023-02-15T08:44:33.000Z,15.80
2023-02-15T08:47:04.554Z,17.52
2023-02-15T08:49:31.912Z,16.58
2023-02-15T08:51:59.050Z,18.17
2023-02-15T08:54:29.274Z,19.25
2023-02-15T08:56:56.114Z,18.38
2023-02-15T08:59:24.172Z,20.05
2023-02-15T09:01:52.642Z,21.35
2023-02-15T09:04:23.167Z,20.52
2023-02-15T09:06:51.441Z,21.17
2023-02-15T09:09:19.533Z,19.98
2023-02-15T09:11:48.720Z,19.67
2023-02-15T09:14:21.180Z,19.45
2023-02-15T09:16:51.978Z,20.70
2023-02-15T09:19:21.468Z,19.55
2023-02-15T09:21:48.285Z,18.92
2023-02-15T09:24:20.079Z,20.60
2023-02-15T09:26:48.804Z,17.98
2023-02-15T09:29:17.693Z,19.77
2023-02-15T09:31:47.920Z,20.42
2023-02-15T09:34:22.523Z,14.65
2023-02-15T09:36:50.625Z,18.83
2023-02-15T09:39:28.319Z,20.48
2023-02-15T09:42:22.326Z,19.48
2023-02-15T09:45:11.216Z,18.23
2023-02-15T09:47:46.818Z,17.00
2023-02-15T09:50:51.668Z,15.10
2023-02-15T09:53:38.083Z,16.17
2023-02-15T09:56:22.621Z,16.17
2023-02-15T09:58:52.418Z,15.25
2023-02-15T10:01:47.329Z,15.32
2023-02-15T10:04:48.730Z,15.98
2023-02-15T10:07:37.396Z,10.52
2023-02-15T10:10:18.988Z,16.88
2023-02-15T10:13:02.646Z,15.98
2023-02-15T10:15:40.650Z,15.45
2023-02-15T10:18:22.817Z,15.95
2023-02-15T10:21:24.192Z,16.08
2023-02-15T10:24:14.335Z,14.95
2023-02-15T10:26:52.564Z,13.02
2023-02-15T10:29:28.758Z,13.70
2023-02-15T10:32:18.029Z,12.38
2023-02-15T10:35:25.992Z,14.43
2023-02-15T10:38:12.354Z,14.77
2023-02-15T10:41:01.478Z,12.35
2023-02-15T10:43:46.716Z,13.48
2023-02-15T10:46:41.548Z,14.32
2023-02-15T10:49:10.895Z,13.27
2023-02-15T10:51:59.448Z,15.52
2023-02-15T10:54:42.346Z,12.38
2023-02-15T10:57:49.070Z,13.80
2023-02-15T11:00:40.256Z,15.48
2023-02-15T11:03:31.014Z,15.75
2023-02-15T11:06:08.364Z,14.30
2023-02-15T11:08:41.311Z,12.20
2023-02-15T11:11:13.231Z,15.60
2023-02-15T11:13:47.331Z,16.00
2023-02-15T11:16:31.256Z,15.68
2023-02-15T11:19:10.262Z,16.35
2023-02-15T11:21:45.454Z,15.38
2023-02-15T11:24:21.890Z,16.25
2023-02-15T11:27:12.949Z,15.80
2023-02-15T11:29:42.681Z,15.38
2023-02-15T11:32:15.632Z,15.02
2023-02-15T11:35:13.385Z,17.27
2023-02-15T11:37:48.568Z,16.27
2023-02-15T11:40:26.726Z,15.23
2023-02-15T11:42:57.193Z,16.90
2023-02-15T11:45:31.970Z,15.90
2023-02-15T11:48:00.408Z,16.88
2023-02-15T11:50:31.919Z,18.05
2023-02-15T11:53:07.157Z,17.20
2023-02-15T11:55:36.102Z,17.15
2023-02-15T11:58:21.873Z,12.52
2023-02-15T12:01:00.794Z,17.30
2023-02-15T12:04:13.949Z,16.70
2023-02-15T12:06:52.793Z,13.30
2023-02-15T12:09:21.957Z,13.45
2023-02-15T12:11:50.480Z,12.93
2023-02-15T12:14:19.442Z,14.40
2023-02-15T12:16:56.260Z,13.25
2023-02-15T12:19:32.139Z,13.13
2023-02-15T12:22:02.038Z,14.27
2023-02-15T12:24:33.586Z,12.75
2023-02-15T12:27:05.133Z,15.85
2023-02-15T12:29:40.400Z,17.13
2023-02-15T12:32:30.086Z,15.27
2023-02-15T12:35:02.728Z,14.50
2023-02-15T12:37:33.144Z,14.32
2023-02-15T12:40:02.538Z,14.50
2023-02-15T12:42:44.526Z,14.48
2023-02-15T12:45:43.849Z,14.45
2023-02-15T12:48:21.268Z,17.35
2023-02-15T12:50:55.326Z,17.55
2023-02-15T12:53:32.491Z,18.10
2023-02-15T12:56:05.175Z,17.45
2023-02-15T12:58:37.113Z,17.60
2023-02-15T13:01:13.179Z,16.15
2023-02-15T13:04:15.905Z,16.45
2023-02-15T13:06:50.231Z,15.63
2023-02-15T13:09:26.205Z,17.42
2023-02-15T13:11:55.257Z,18.23
2023-02-15T13:14:35.014Z,14.18
2023-02-15T13:17:06.190Z,11.52
2023-02-15T13:19:51.229Z,16.38
2023-02-15T13:22:23.024Z,11.02
2023-02-15T13:24:56.971Z,13.95
2023-02-15T13:27:29.376Z,14.48
2023-02-15T13:30:00.246Z,14.98
2023-02-15T13:32:40.502Z,14.82
2023-02-15T13:35:15.792Z,15.45
2023-02-15T13:38:08.816Z,8.57
2023-02-15T13:40:51.179Z,7.55
2023-02-15T13:43:57.391Z,13.48
2023-02-15T13:46:56.535Z,9.88
2023-02-15T13:49:35.036Z,8.38
2023-02-15T13:52:20.255Z,12.80
2023-02-15T13:55:04.166Z,13.30
2023-02-15T13:57:56.024Z,11.40
2023-02-15T14:00:31.643Z,12.95
2023-02-15T14:03:19.938Z,12.13
2023-02-15T14:05:58.761Z,13.48
2023-02-15T14:09:04.073Z,15.15
2023-02-15T14:11:52.792Z,12.77
2023-02-15T14:14:41.718Z,14.25
2023-02-15T14:17:24.310Z,12.23
2023-02-15T14:19:58.399Z,8.13
2023-02-15T14:25:34.565Z,14.07
2023-02-15T14:28:16.333Z,13.77
2023-02-15T14:30:48.008Z,16.88
2023-02-15T14:33:15.050Z,13.13
2023-02-15T14:35:43.854Z,14.20
2023-02-15T14:38:10.653Z,14.45
2023-02-15T14:41:04.384Z,15.30
2023-02-15T14:43:34.714Z,15.98
2023-02-15T14:46:23.805Z,14.50
2023-02-15T14:48:54.264Z,15.85
2023-02-15T14:51:51.642Z,15.30
2023-02-15T14:54:18.501Z,13.30
2023-02-15T14:56:46.707Z,15.55
2023-02-15T14:59:24.758Z,15.85
2023-02-15T15:02:00.192Z,14.35
2023-02-15T15:04:36.138Z,12.93
2023-02-15T15:07:25.226Z,10.48
2023-02-15T15:10:18.621Z,12.15
2023-02-15T15:12:50.957Z,16.67
2023-02-15T15:15:32.925Z,14.60
2023-02-15T15:18:11.223Z,15.35
2023-02-15T15:20:45.786Z,10.80
2023-02-15T15:23:45.472Z,14.93
2023-02-15T15:26:25.701Z,15.32
2023-02-15T15:28:54.803Z,14.73
2023-02-15T15:31:29.042Z,16.60
2023-02-15T15:34:17.557Z,16.58
2023-02-15T15:37:03.584Z,15.07
2023-02-15T15:39:52.104Z,16.70
2023-02-15T15:42:33.034Z,15.82
2023-02-15T15:45:20.025Z,16.95
2023-02-15T15:48:06.563Z,15.13
2023-02-15T15:50:41.733Z,16.55
2023-02-15T15:53:21.144Z,15.13
2023-02-15T15:55:51.708Z,14.25
2023-02-15T15:58:20.461Z,15.65
2023-02-15T16:01:00.499Z,15.32
2023-02-15T16:03:29.309Z,16.73
2023-02-15T16:06:01.042Z,17.85
2023-02-15T16:08:33.961Z,17.30
2023-02-15T16:11:14.826Z,17.00
2023-02-15T16:13:44.315Z,16.23
2023-02-15T16:16:14.346Z,18.08
2023-02-15T16:18:43.406Z,16.77
2023-02-15T16:21:19.690Z,16.27
2023-02-15T16:24:10.304Z,16.58
2023-02-15T16:27:21.998Z,16.13
2023-02-15T16:29:48.875Z,14.93
2023-02-15T16:32:28.317Z,16.25
2023-02-15T16:34:57.967Z,16.52
2023-02-15T16:37:28.401Z,16.13
2023-02-15T16:39:56.657Z,15.50
2023-02-15T16:42:24.628Z,15.50
2023-02-15T16:44:59.102Z,14.52
2023-02-15T16:47:29.665Z,9.88
2023-02-15T16:50:00.838Z,15.60
2023-02-15T16:52:31.928Z,15.23
2023-02-15T16:55:03.057Z,15.60
2023-02-15T16:57:36.813Z,15.00
2023-02-15T17:02:56.424Z,13.73
2023-02-15T17:05:23.821Z,14.68
2023-02-15T17:08:03.177Z,16.75
2023-02-15T17:10:34.639Z,14.25
2023-02-15T17:13:11.718Z,15.80
2023-02-15T17:15:43.847Z,16.10
2023-02-15T17:18:19.614Z,14.27
2023-02-15T17:20:48.792Z,15.15
2023-02-15T17:23:30.852Z,16.10
2023-02-15T17:25:59.361Z,17.52
2023-02-15T17:28:31.471Z,15.27
2023-02-15T17:30:59.616Z,15.27
2023-02-15T17:33:38.209Z,16.20
2023-02-15T17:36:06.412Z,15.68
2023-02-15T17:38:37.641Z,14.80
2023-02-15T17:41:07.154Z,15.18
2023-02-15T17:43:37.490Z,17.15
2023-02-15T17:46:04.462Z,15.05
2023-02-15T17:48:36.462Z,16.33
2023-02-15T17:51:05.786Z,15.48
2023-02-15T17:53:35.596Z,15.82
2023-02-15T17:56:10.463Z,15.60
2023-02-15T17:58:38.524Z,16.10
2023-02-15T18:01:30.337Z,16.85
2023-02-15T18:04:16.021Z,16.65
2023-02-15T18:07:03.174Z,15.52
2023-02-15T18:09:48.953Z,16.35
2023-02-15T18:12:38.559Z,16.05
2023-02-15T18:15:10.807Z,15.48
2023-02-15T18:17:42.613Z,15.73
2023-02-15T18:20:18.567Z,17.23
2023-02-15T18:22:46.476Z,16.75
2023-02-15T18:25:16.358Z,17.58
2023-02-15T18:27:43.600Z,17.58
2023-02-15T18:30:22.637Z,15.52
2023-02-15T18:32:52.769Z,17.90
2023-02-15T18:35:22.870Z,18.60
2023-02-15T18:37:52.232Z,16.75
2023-02-15T18:40:22.633Z,17.33
2023-02-15T18:42:49.616Z,18.13
2023-02-15T18:45:19.789Z,17.13
2023-02-15T18:47:50.085Z,18.27
2023-02-15T18:50:22.224Z,16.60
2023-02-15T18:52:51.668Z,17.27
2023-02-15T18:55:28.126Z,16.20
2023-02-15T18:57:57.070Z,18.65
2023-02-15T19:00:28.292Z,17.08
2023-02-15T19:02:56.028Z,15.27
2023-02-15T19:05:27.978Z,17.70
2023-02-15T19:07:55.881Z,17.02
2023-02-15T19:10:25.755Z,17.48
2023-02-15T19:12:53.951Z,16.50
2023-02-15T19:15:30.545Z,17.83
2023-02-15T19:17:57.797Z,17.05
2023-02-15T19:20:29.790Z,15.75
2023-02-15T19:22:59.117Z,15.27
2023-02-15T19:25:28.918Z,16.10
2023-02-15T19:27:56.368Z,16.38
2023-02-15T19:30:29.781Z,17.48
2023-02-15T19:32:58.065Z,17.88
2023-02-15T19:35:29.501Z,17.25
2023-02-15T19:37:59.315Z,19.77
2023-02-15T19:40:29.260Z,17.30
2023-02-15T19:42:56.341Z,18.05
2023-02-15T19:45:27.214Z,17.88
2023-02-15T19:47:55.193Z,19.65
2023-02-15T19:50:45.174Z,18.23
2023-02-15T19:53:30.092Z,17.48
2023-02-15T19:55:57.488Z,17.42
2023-02-15T19:58:27.808Z,19.13
2023-02-15T20:00:54.892Z,18.58
2023-02-15T20:03:22.029Z,18.45
2023-02-15T20:05:50.156Z,18.08
2023-02-15T20:08:19.655Z,20.33
2023-02-15T20:10:46.991Z,22.00
2023-02-15T20:13:18.378Z,18.50
2023-02-15T20:15:50.792Z,17.58
2023-02-15T20:18:22.553Z,19.23
2023-02-15T20:20:57.125Z,19.40
2023-02-15T20:23:26.699Z,18.65
2023-02-15T20:25:57.325Z,20.40
2023-02-15T20:28:27.296Z,19.90
2023-02-15T20:30:54.561Z,24.50
2023-02-15T20:33:23.171Z,23.75
2023-02-15T20:35:51.174Z,23.65
2023-02-15T20:38:25.561Z,24.65
2023-02-15T20:41:12.937Z,23.20
2023-02-15T20:43:42.532Z,24.80
2023-02-15T20:46:10.299Z,24.95
2023-02-15T20:48:37.163Z,22.00
2023-02-15T20:51:05.097Z,22.67
2023-02-15T20:53:32.658Z,23.67
2023-02-15T20:56:01.172Z,25.38
2023-02-15T20:58:30.568Z,25.90
2023-02-15T21:00:59.212Z,26.35
2023-02-15T21:03:30.870Z,27.02
2023-02-15T21:05:58.973Z,27.67
2023-02-15T21:08:35.906Z,26.27
2023-02-15T21:11:03.471Z,27.35
2023-02-15T21:13:34.904Z,27.02
2023-02-15T21:16:09.175Z,28.33
2023-02-15T21:18:38.758Z,27.10
2023-02-15T21:21:06.762Z,27.80
2023-02-15T21:23:38.797Z,29.30
2023-02-15T21:26:07.658Z,29.27
2023-02-15T21:28:34.459Z,29.35
2023-02-15T21:31:01.703Z,31.58
2023-02-15T21:33:28.751Z,30.02
2023-02-15T21:35:57.965Z,29.63
2023-02-15T21:38:29.121Z,32.70
2023-02-15T21:41:16.284Z,34.47
2023-02-15T21:44:01.565Z,31.95
2023-02-15T21:46:47.301Z,34.67
2023-02-15T21:49:17.342Z,34.58
2023-02-15T21:52:03.021Z,38.15
2023-02-15T21:54:30.067Z,35.97
2023-02-15T21:56:57.193Z,37.42
2023-02-15T21:59:27.270Z,36.65
2023-02-15T22:01:54.541Z,34.70
2023-02-15T22:04:27.281Z,33.05
2023-02-15T22:06:57.456Z,37.38
2023-02-15T22:09:27.296Z,34.42
2023-02-15T22:11:55.132Z,33.28
2023-02-15T22:14:36.411Z,33.80
2023-02-15T22:17:13.785Z,34.33
2023-02-15T22:19:40.734Z,32.22
2023-02-15T22:22:10.440Z,31.67
2023-02-15T22:24:37.992Z,34.45
2023-02-15T22:27:06.585Z,31.65
2023-02-15T22:29:34.204Z,32.33
2023-02-15T22:32:01.527Z,31.15
2023-02-15T22:34:31.450Z,32.47
2023-02-15T22:36:59.567Z,30.80
2023-02-15T22:39:26.427Z,30.25
2023-02-15T22:41:57.062Z,32.60
2023-02-15T22:44:29.041Z,33.58
2023-02-15T22:47:00.246Z,29.85
2023-02-15T22:49:27.525Z,32.00
2023-02-15T22:51:54.606Z,32.28
2023-02-15T22:54:22.021Z,34.55
2023-02-15T22:56:53.696Z,33.05
2023-02-15T22:59:28.813Z,32.40
2023-02-15T23:01:58.680Z,32.67
2023-02-15T23:04:28.941Z,34.28
2023-02-15T23:07:00.664Z,33.38
2023-02-15T23:09:27.482Z,32.45
2023-02-15T23:11:57.753Z,32.60
2023-02-15T23:14:35.433Z,34.55
2023-02-15T23:17:03.150Z,37.83
2023-02-15T23:19:30.202Z,34.55
2023-02-15T23:21:59.597Z,36.72
2023-02-15T23:24:28.592Z,35.25
2023-02-15T23:27:16.272Z,37.47
2023-02-15T23:29:43.101Z,37.20
2023-02-15T23:32:13.422Z,37.22
2023-02-15T23:34:44.631Z,36.25
2023-02-15T23:37:13.141Z,36.08
2023-02-15T23:39:58.977Z,38.05
2023-02-15T23:42:30.197Z,37.80
2023-02-15T23:44:57.635Z,39.33
2023-02-15T23:47:48.005Z,39.67
2023-02-15T23:50:18.927Z,37.00
2023-02-15T23:52:46.081Z,40.78
2023-02-15T23:55:14.167Z,37.72
2023-02-15T23:57:45.223Z,36.75
